Wheeling Ohio County Airport
KHLG : now visible

Airfield :











YOU CAN JOIN US ON...

 
LOGIN :

Register | Disclaimer

   EN    FR    IT 

 









Legend :    VFR   Marginal VFR   IFR   Intensive IFR   Very Intensive IFR
Visi :
Ceiling :
>= 8 km
>= 3000ft
5 to 8 km
1000 to 3000 ft
1500m to 5 km
500 to 1000 ft
800 to 1500m
200 to 500 ft
< 800m
< 200 ft
Symbols :   Thunderstorms  Fog  Heavy snow  Heavy precipitations  Wind > 20 kt






- Airport Elevation : 1195 ft


KHLG - Wheeling Ohio County

CURRENT METAR :
  • 200553Z AUTO 25008KT 6SM -SN BKN016 BKN032 OVC050 M09/M13 A3029 RMK AO2 SNB0458E26B53 SLP281 P0000 60000 T10941128 11089 21094 50007

EXPIRED METARs :
  • 200521Z AUTO 27006KT 7SM -SN SCT018 OVC048 M09/M13 A3029 RMK AO2 SNB0458 P0000 T10941133
  • 200453Z AUTO 26008KT 10SM BKN018 OVC045 M09/M13 A3029 RMK AO2 SNE32 SLP281 P0000 T10941133 400331094
  • 200353Z AUTO 27010G16KT 6SM -SN SCT020 BKN028 OVC038 M09/M13 A3028 RMK AO2 SNE06B44 SLP276 P0000 T10941133
  • 200341Z AUTO 27007KT 10SM BKN020 OVC039 M09/M13 A3027 RMK AO2 SNE06 P0000 T10941133
  • 200326Z AUTO 27008G18KT 10SM SCT021 BKN039 OVC065 M09/M14 A3027 RMK AO2 SNE06 P0000 T10941139

TAF KHLG
Valid from the 20 at 06:00 until the 21 at 06:00 UTC


200522Z 2006/2106 28008KT P6SM -SHSN SCT015 BKN025
TEMPO 2006/2009 4SM -SHSN BKN015
FM201200 33005KT P6SM BKN025
FM201400 33005KT P6SM BKN035



MET'MAP, your aeronautical weather chart ! - Copyright ORBIFLY December 2007 - Disclaimer

ORBIFLY MET'MAP TEAM :

Programming & Development : Alexandra Zaïnal
Concept & original design : Baudouin d'Aumeries
Assistance for programming : Marc-Olivier Méhu
Technical & hardware support : Manuel Goepfert

Contact : metmap@orbifly.com




SOURCES & CREDITS :

   NOAA       Earth
Advisory